Time,TemperatureF,DewpointF,PressureIn,WindDirection,WindDirectionDegrees,WindSpeedMPH,WindSpeedGustMPH,Humidity,HourlyPrecipIn,Conditions,Clouds,dailyrainin,SoftwareType,DateUTC
2013-06-23 00:01:00,65.8,53.0,29.77,South,180,4.0,5.0,64,0.00,,,0.00,weatherlink.com 1.10,2013-06-23 07:01:00,
2013-06-23 00:16:00,65.4,53.0,29.77,South,178,5.0,7.0,65,0.00,,,0.00,weatherlink.com 1.10,2013-06-23 07:16:00,
2013-06-23 00:31:00,65.3,53.0,29.77,South,178,1.0,7.0,65,0.00,,,0.00,weatherlink.com 1.10,2013-06-23 07:31:00,
2013-06-23 00:46:00,64.9,53.0,29.77,SE,131,2.0,6.0,66,0.00,,,0.00,weatherlink.com 1.10,2013-06-23 07:46:00,
2013-06-23 01:01:00,64.6,53.0,29.77,South,180,3.0,6.0,66,0.00,,,0.00,weatherlink.com 1.10,2013-06-23 08:01:00,
2013-06-23 01:16:00,64.2,53.0,29.77,SW,216,2.0,7.0,68,0.00,,,0.00,weatherlink.com 1.10,2013-06-23 08:16:00,
2013-06-23 01:31:00,63.8,53.0,29.77,South,191,4.0,9.0,68,0.00,,,0.00,weatherlink.com 1.10,2013-06-23 08:31:00,
2013-06-23 01:46:00,63.5,54.0,29.77,South,180,4.0,9.0,70,0.00,,,0.00,weatherlink.com 1.10,2013-06-23 08:46:00,
2013-06-23 02:01:00,62.9,53.0,29.76,SSE,164,2.0,7.0,71,0.00,,,0.00,weatherlink.com 1.10,2013-06-23 09:01:00,
2013-06-23 02:16:00,62.5,53.0,29.77,South,186,2.0,6.0,72,0.00,,,0.00,weatherlink.com 1.10,2013-06-23 09:16:00,
2013-06-23 02:31:00,62.2,53.0,29.76,SSW,203,4.0,9.0,73,0.00,,,0.00,weatherlink.com 1.10,2013-06-23 09:31:00,
2013-06-23 02:46:00,61.9,54.0,29.76,SSW,197,3.0,9.0,74,0.00,,,0.00,weatherlink.com 1.10,2013-06-23 09:46:00,
2013-06-23 03:01:00,61.7,54.0,29.76,SSE,168,1.0,9.0,75,0.00,,,0.00,weatherlink.com 1.10,2013-06-23 10:01:00,
2013-06-23 03:16:00,61.4,54.0,29.76,SSW,196,5.0,8.0,76,0.00,,,0.00,weatherlink.com 1.10,2013-06-23 10:16:00,
2013-06-23 03:31:00,61.0,54.0,29.76,SSW,192,7.0,8.0,77,0.00,,,0.00,weatherlink.com 1.10,2013-06-23 10:31:00,
2013-06-23 03:46:00,60.6,54.0,29.76,South,181,5.0,9.0,79,0.00,,,0.00,weatherlink.com 1.10,2013-06-23 10:46:00,
2013-06-23 04:01:00,60.4,54.0,29.76,SSW,195,5.0,13.0,79,0.00,,,0.00,weatherlink.com 1.10,2013-06-23 11:01:00,
2013-06-23 04:16:00,60.0,54.0,29.76,SW,224,3.0,8.0,80,0.00,,,0.00,weatherlink.com 1.10,2013-06-23 11:16:00,
2013-06-23 04:31:00,59.8,54.0,29.76,SSW,196,4.0,9.0,81,0.00,,,0.00,weatherlink.com 1.10,2013-06-23 11:31:00,
2013-06-23 04:47:00,59.6,54.0,29.76,South,174,4.0,7.0,83,0.00,,,0.00,weatherlink.com 1.10,2013-06-23 11:47:00,
2013-06-23 05:02:00,59.6,54.0,29.77,South,178,2.0,10.0,83,0.00,,,0.00,weatherlink.com 1.10,2013-06-23 12:02:00,
2013-06-23 05:17:00,59.6,55.0,29.77,South,177,4.0,7.0,84,0.00,,,0.00,weatherlink.com 1.10,2013-06-23 12:17:00,
2013-06-23 05:32:00,59.6,55.0,29.77,SSW,194,4.0,8.0,85,0.00,,,0.00,weatherlink.com 1.10,2013-06-23 12:32:00,
2013-06-23 05:47:00,59.6,56.0,29.77,SSW,212,8.0,8.0,86,0.00,,,0.00,weatherlink.com 1.10,2013-06-23 12:47:00,
2013-06-23 06:02:00,59.8,56.0,29.77,South,180,3.0,8.0,86,0.00,,,0.00,weatherlink.com 1.10,2013-06-23 13:02:00,
2013-06-23 06:17:00,60.4,56.0,29.77,WSW,238,4.0,6.0,86,0.00,,,0.00,weatherlink.com 1.10,2013-06-23 13:17:00,
2013-06-23 06:32:00,61.1,56.0,29.77,South,182,4.0,6.0,84,0.00,,,0.00,weatherlink.com 1.10,2013-06-23 13:32:00,
2013-06-23 06:47:00,61.3,56.0,29.77,South,171,4.0,8.0,83,0.00,,,0.00,weatherlink.com 1.10,2013-06-23 13:47:00,
2013-06-23 07:17:00,62.0,56.0,29.77,South,174,6.0,9.0,81,0.00,,,0.00,weatherlink.com 1.10,2013-06-23 14:17:00,
2013-06-23 07:32:00,62.4,56.0,29.78,South,181,6.0,8.0,80,0.00,,,0.00,weatherlink.com 1.10,2013-06-23 14:32:00,
2013-06-23 07:47:00,62.6,56.0,29.78,SSW,196,4.0,8.0,80,0.00,,,0.00,weatherlink.com 1.10,2013-06-23 14:47:00,
2013-06-23 08:02:00,62.8,57.0,29.78,South,186,5.0,8.0,80,0.00,,,0.00,weatherlink.com 1.10,2013-06-23 15:02:00,
2013-06-23 08:17:00,63.4,57.0,29.78,South,186,9.0,9.0,79,0.00,,,0.00,weatherlink.com 1.10,2013-06-23 15:17:00,
2013-06-23 08:32:00,64.2,57.0,29.78,SSW,208,4.0,8.0,78,0.00,,,0.00,weatherlink.com 1.10,2013-06-23 15:32:00,
2013-06-23 08:47:00,64.9,58.0,29.79,SW,223,3.0,9.0,77,0.00,,,0.00,weatherlink.com 1.10,2013-06-23 15:47:00,
2013-06-23 09:02:00,66.1,58.0,29.79,South,174,6.0,10.0,75,0.00,,,0.00,weatherlink.com 1.10,2013-06-23 16:02:00,
2013-06-23 09:17:00,66.3,58.0,29.80,SSW,207,6.0,11.0,74,0.00,,,0.00,weatherlink.com 1.10,2013-06-23 16:17:00,
2013-06-23 09:32:00,67.4,59.0,29.79,WSW,254,5.0,10.0,74,0.00,,,0.00,weatherlink.com 1.10,2013-06-23 16:32:00,
2013-06-23 09:47:00,68.2,59.0,29.80,SSW,205,7.0,8.0,72,0.00,,,0.00,weatherlink.com 1.10,2013-06-23 16:47:00,
2013-06-23 10:02:00,68.4,58.0,29.80,SW,226,5.0,13.0,69,0.00,,,0.00,weatherlink.com 1.10,2013-06-23 17:02:00,
2013-06-23 10:17:00,67.6,57.0,29.81,SW,217,10.0,14.0,70,0.00,,,0.00,weatherlink.com 1.10,2013-06-23 17:17:00,
2013-06-23 10:33:00,66.9,58.0,29.82,SW,222,6.0,9.0,72,0.00,,,0.00,weatherlink.com 1.10,2013-06-23 17:33:00,
2013-06-23 10:48:00,66.3,57.0,29.82,South,181,6.0,9.0,73,0.00,,,0.00,weatherlink.com 1.10,2013-06-23 17:48:00,
2013-06-23 11:03:00,66.0,58.0,29.82,SSW,212,4.0,10.0,74,0.00,,,0.00,weatherlink.com 1.10,2013-06-23 18:03:00,
2013-06-23 11:18:00,66.1,57.0,29.82,South,182,5.0,12.0,73,0.00,,,0.00,weatherlink.com 1.10,2013-06-23 18:18:00,
2013-06-23 11:33:00,66.5,58.0,29.82,SSW,195,4.0,11.0,74,0.00,,,0.00,weatherlink.com 1.10,2013-06-23 18:33:00,
2013-06-23 11:48:00,67.0,58.0,29.82,South,169,1.0,9.0,73,0.00,,,0.00,weatherlink.com 1.10,2013-06-23 18:48:00,
2013-06-23 12:03:00,67.9,59.0,29.81,ESE,105,7.0,7.0,73,0.00,,,0.00,weatherlink.com 1.10,2013-06-23 19:03:00,
2013-06-23 12:18:00,70.2,59.0,29.81,South,180,6.0,11.0,68,0.00,,,0.00,weatherlink.com 1.10,2013-06-23 19:18:00,
2013-06-23 12:33:00,73.0,59.0,29.82,SW,227,4.0,11.0,62,0.00,,,0.00,weatherlink.com 1.10,2013-06-23 19:33:00,
2013-06-23 12:48:00,74.5,59.0,29.81,South,182,8.0,12.0,58,0.00,,,0.00,weatherlink.com 1.10,2013-06-23 19:48:00,
2013-06-23 13:03:00,76.2,58.0,29.80,SSW,193,6.0,12.0,54,0.00,,,0.00,weatherlink.com 1.10,2013-06-23 20:03:00,
2013-06-23 13:18:00,76.6,58.0,29.80,South,169,5.0,12.0,53,0.00,,,0.00,weatherlink.com 1.10,2013-06-23 20:18:00,
2013-06-23 13:33:00,75.3,59.0,29.80,SSW,205,7.0,15.0,57,0.00,,,0.00,weatherlink.com 1.10,2013-06-23 20:33:00,
2013-06-23 13:48:00,71.9,59.0,29.81,SW,224,7.0,21.0,64,0.00,,,0.00,weatherlink.com 1.10,2013-06-23 20:48:00,
2013-06-23 14:03:00,71.7,60.0,29.81,WSW,240,6.0,16.0,66,0.00,,,0.00,weatherlink.com 1.10,2013-06-23 21:03:00,
2013-06-23 14:18:00,71.5,60.0,29.81,SW,227,12.0,16.0,67,0.00,,,0.00,weatherlink.com 1.10,2013-06-23 21:18:00,
2013-06-23 14:33:00,73.4,61.0,29.79,SSW,199,4.0,10.0,65,0.00,,,0.00,weatherlink.com 1.10,2013-06-23 21:33:00,
2013-06-23 14:48:00,75.5,61.0,29.79,WSW,248,4.0,15.0,61,0.00,,,0.00,weatherlink.com 1.10,2013-06-23 21:48:00,
2013-06-23 15:03:00,75.1,60.0,29.78,West,263,14.0,15.0,60,0.00,,,0.00,weatherlink.com 1.10,2013-06-23 22:03:00,
2013-06-23 15:18:00,74.0,61.0,29.79,WSW,248,7.0,21.0,63,0.00,,,0.00,weatherlink.com 1.10,2013-06-23 22:18:00,
2013-06-23 15:33:00,72.9,61.0,29.78,SSW,212,11.0,20.0,67,0.00,,,0.00,weatherlink.com 1.10,2013-06-23 22:33:00,
2013-06-23 15:48:00,72.6,61.0,29.78,WNW,286,13.0,19.0,67,0.00,,,0.00,weatherlink.com 1.10,2013-06-23 22:48:00,
2013-06-23 16:03:00,72.0,61.0,29.79,SSW,211,8.0,19.0,69,0.00,,,0.00,weatherlink.com 1.10,2013-06-23 23:03:00,
2013-06-23 16:18:00,71.5,60.0,29.79,SW,225,13.0,21.0,68,0.00,,,0.00,weatherlink.com 1.10,2013-06-23 23:18:00,
2013-06-23 16:33:00,72.3,62.0,29.78,SW,222,13.0,18.0,69,0.00,,,0.00,weatherlink.com 1.10,2013-06-23 23:33:00,
2013-06-23 16:48:00,72.2,61.0,29.78,WSW,240,7.0,17.0,68,0.00,,,0.00,weatherlink.com 1.10,2013-06-23 23:48:00,
2013-06-23 17:03:00,70.8,61.0,29.78,SSW,203,9.0,21.0,71,0.00,,,0.00,weatherlink.com 1.10,2013-06-24 00:03:00,
2013-06-23 17:18:00,70.1,61.0,29.78,SW,221,9.0,19.0,73,0.00,,,0.00,weatherlink.com 1.10,2013-06-24 00:18:00,
2013-06-23 17:33:00,69.7,61.0,29.79,SW,227,11.0,13.0,74,0.00,,,0.00,weatherlink.com 1.10,2013-06-24 00:33:00,
2013-06-23 17:48:00,69.9,61.0,29.79,SSW,204,5.0,10.0,73,0.00,,,0.00,weatherlink.com 1.10,2013-06-24 00:48:00,
2013-06-23 18:03:00,70.1,60.0,29.79,WSW,238,13.0,13.0,71,0.00,,,0.00,weatherlink.com 1.10,2013-06-24 01:03:00,
2013-06-23 18:18:00,69.9,60.0,29.79,SW,215,8.0,11.0,71,0.00,,,0.00,weatherlink.com 1.10,2013-06-24 01:18:00,
2013-06-23 18:33:00,69.8,60.0,29.79,SSW,204,4.0,10.0,72,0.00,,,0.00,weatherlink.com 1.10,2013-06-24 01:33:00,
2013-06-23 18:48:00,69.8,60.0,29.78,SSW,195,9.0,12.0,72,0.00,,,0.00,weatherlink.com 1.10,2013-06-24 01:48:00,
2013-06-23 19:03:00,70.2,60.0,29.78,SSW,211,7.0,13.0,71,0.00,,,0.00,weatherlink.com 1.10,2013-06-24 02:03:00,
2013-06-23 19:18:00,70.0,60.0,29.78,SSW,205,4.0,14.0,71,0.00,,,0.00,weatherlink.com 1.10,2013-06-24 02:18:00,
2013-06-23 19:33:00,69.3,60.0,29.79,WSW,246,7.0,14.0,72,0.00,,,0.00,weatherlink.com 1.10,2013-06-24 02:33:00,
2013-06-23 19:48:00,68.8,60.0,29.78,South,188,16.0,16.0,73,0.00,,,0.00,weatherlink.com 1.10,2013-06-24 02:48:00,
2013-06-23 20:03:00,68.8,60.0,29.78,SW,227,5.0,15.0,73,0.00,,,0.00,weatherlink.com 1.10,2013-06-24 03:03:00,
2013-06-23 20:18:00,68.5,60.0,29.78,SSW,203,7.0,16.0,73,0.00,,,0.00,weatherlink.com 1.10,2013-06-24 03:18:00,
2013-06-23 20:33:00,67.7,60.0,29.78,SSW,198,10.0,15.0,75,0.00,,,0.00,weatherlink.com 1.10,2013-06-24 03:33:00,
2013-06-23 20:48:00,66.9,59.0,29.78,SW,228,10.0,14.0,76,0.00,,,0.00,weatherlink.com 1.10,2013-06-24 03:48:00,
2013-06-23 21:03:00,66.0,59.0,29.79,SSW,210,8.0,11.0,78,0.00,,,0.00,weatherlink.com 1.10,2013-06-24 04:03:00,
2013-06-23 21:18:00,65.3,59.0,29.79,WSW,242,3.0,9.0,80,0.00,,,0.00,weatherlink.com 1.10,2013-06-24 04:18:00,
2013-06-23 21:33:00,64.9,59.0,29.79,SW,224,7.0,12.0,81,0.00,,,0.00,weatherlink.com 1.10,2013-06-24 04:33:00,
2013-06-23 21:48:00,64.5,59.0,29.80,SSW,194,2.0,7.0,81,0.00,,,0.00,weatherlink.com 1.10,2013-06-24 04:48:00,
2013-06-23 22:03:00,64.1,59.0,29.79,SW,221,2.0,7.0,82,0.00,,,0.00,weatherlink.com 1.10,2013-06-24 05:03:00,
2013-06-23 22:18:00,64.1,59.0,29.79,SW,219,4.0,9.0,83,0.00,,,0.00,weatherlink.com 1.10,2013-06-24 05:18:00,
2013-06-23 22:33:00,64.0,59.0,29.79,SSW,207,5.0,9.0,83,0.00,,,0.00,weatherlink.com 1.10,2013-06-24 05:33:00,
2013-06-23 23:03:00,63.3,59.0,29.80,SSW,204,4.0,7.0,85,0.00,,,0.00,weatherlink.com 1.10,2013-06-24 06:03:00,
2013-06-23 23:18:00,62.9,58.0,29.80,SSW,207,1.0,7.0,85,0.00,,,0.00,weatherlink.com 1.10,2013-06-24 06:18:00,
2013-06-23 23:33:00,62.6,58.0,29.80,South,175,3.0,6.0,86,0.00,,,0.00,weatherlink.com 1.10,2013-06-24 06:33:00,
2013-06-23 23:48:00,62.3,58.0,29.79,SSW,202,2.0,8.0,86,0.00,,,0.00,weatherlink.com 1.10,2013-06-24 06:48:00,